46U

Alpine Airport

Alpine, Wyoming, USA
METAR K46U 182140Z AUTO VRB03KT 9SM CLR 28/05 A3021 RMK A01
Observed Flight Rules
Jul-18 @ 21:40 UTC (36 minutes ago) Visual Flight Rules
Wind Visibility Clouds
Variable at 3 knots 9 miles
  • Clear skies
Temperatures Readings
Current 28°C / 82°F
Dewpoint 5°C / 41°F
Humidity 23%
Altimeter 30.21" Hg
Pressure 1023 hPa
Elevation 1717
METAR K46U 182140Z AUTO VRB03KT 9SM CLR 28/05 A3021 RMK A01
Observed Flight Rules
Jul-18 @ 21:40 UTC
(36 minutes ago)
VFR
Wind Visibility
Variable at 3 knots 9 miles
Clouds
  • Clear skies
Temperature Dewpoint
28°C / 82°F 5°C / 41°F
Humidity Altimeter Pressure
23% 30.21" Hg 1023 hPa